Aviation Digital Data Service (ADDS)

Output produced by METARs form (2206 UTC 21 May 2022)
found at http://www.aviationweather.gov/metar/data/
 
TAF AMD WABB 212100Z 2121/2300 35002KT 7000 RA SCT018 
     TEMPO 2121/2200 FEW017CB 
     BECMG 2202/2204 NSW
       
WAAA 212130Z 13002KT 8000 FEW019 23/23 Q1008 NOSIG
TAF WAAA 211700Z 2118/2224 10005KT 8000 SCT018 
     BECMG 2201/2203 31010KT
       
WAKK 212130Z 00000KT 9999 FEW016 25/24 Q1009 NOSIG
WAPP 212130Z 01003KT 9999 FEW016 24/23 Q1009 NOSIG
TAF WAPP 211700Z 2118/2218 25005KT 9999 SCT018 
     TEMPO 2118/2121 5000 RA
       
WIMM 212130Z 15002KT 8000 SCT017 25/23 Q1006 NOSIG
TAF WIMM 211700Z 2118/2218 VRB05KT 5000 HZ FEW016CB SCT018 
     BECMG 2202/2204 02010KT 9000 SCT017 
     BECMG 2211/2213 VRB04KT 5000 HZ
       
WAMM 212200Z VRB01KT 9999 SCT020 25/23 Q1009 NOSIG
TAF WAMM 211700Z 2118/2224 VRB03KT 9999 SCT021 
     BECMG 2200/2202 07009KT
       
WAJJ 212200Z 00000KT 9999 FEW013 26/23 Q1009 NOSIG
WIII 212200Z VRB03KT 5000 HZ SCT020 26/24 Q1007 NOSIG
TAF WIII 211700Z 2118/2224 22005KT 8000 SCT020 
     BECMG 2203/2205 05010KT 
     BECMG 2208/2210 21005KT 
     TEMPO 2210/2213 5000 -TSRA FEW016CB
       
TAF WITT 211700Z 2118/2218 310008KT 9999 SCT018 
     BECMG 2202/2204 14010KT
       
WIPP 212130Z 21003KT 3000 BR SCT010 25/24 Q1007 NOSIG
TAF WIPP 211700Z 2118/2218 02004KT 6000 SCT010 
     TEMPO 2121/2124 2000 BR 
     BECMG 2200/2202 16008KT 9999 NSW
       
WIBB 212100Z 00000KT 7000 BKN010 23/22 Q1006
WIOO 212130Z AUTO VRB02KT 7000 SCT280 25/25 Q1007